sensor_id;sensor_type;location;lat;lon;timestamp;P1;durP1;ratioP1;P2;durP2;ratioP2
8663;SDS011;4369;47.842;13.096;2023-04-03T00:01:50;12.43;;;8.77;;
8663;SDS011;4369;47.842;13.096;2023-04-03T00:04:17;10.80;;;8.80;;
8663;SDS011;4369;47.842;13.096;2023-04-03T00:06:43;10.57;;;8.77;;
8663;SDS011;4369;47.842;13.096;2023-04-03T00:09:10;9.70;;;8.70;;
8663;SDS011;4369;47.842;13.096;2023-04-03T00:11:38;9.20;;;8.30;;
8663;SDS011;4369;47.842;13.096;2023-04-03T00:14:06;11.03;;;8.77;;
8663;SDS011;4369;47.842;13.096;2023-04-03T00:16:33;11.50;;;9.00;;
8663;SDS011;4369;47.842;13.096;2023-04-03T00:19:00;11.43;;;9.10;;
8663;SDS011;4369;47.842;13.096;2023-04-03T00:21:27;10.10;;;8.90;;
8663;SDS011;4369;47.842;13.096;2023-04-03T00:23:54;10.17;;;9.13;;
8663;SDS011;4369;47.842;13.096;2023-04-03T00:26:21;10.20;;;9.10;;
8663;SDS011;4369;47.842;13.096;2023-04-03T00:28:48;11.13;;;9.37;;
8663;SDS011;4369;47.842;13.096;2023-04-03T00:31:16;10.33;;;9.23;;
8663;SDS011;4369;47.842;13.096;2023-04-03T00:33:43;12.20;;;9.03;;
8663;SDS011;4369;47.842;13.096;2023-04-03T00:36:10;11.03;;;9.13;;
8663;SDS011;4369;47.842;13.096;2023-04-03T00:38:38;11.03;;;8.83;;
8663;SDS011;4369;47.842;13.096;2023-04-03T00:41:05;10.23;;;9.13;;
8663;SDS011;4369;47.842;13.096;2023-04-03T00:43:33;10.97;;;8.60;;
8663;SDS011;4369;47.842;13.096;2023-04-03T00:46:00;9.27;;;8.00;;
8663;SDS011;4369;47.842;13.096;2023-04-03T00:48:29;8.23;;;7.43;;
8663;SDS011;4369;47.842;13.096;2023-04-03T00:50:59;9.27;;;8.03;;
8663;SDS011;4369;47.842;13.096;2023-04-03T00:53:27;8.83;;;7.93;;
8663;SDS011;4369;47.842;13.096;2023-04-03T00:55:58;8.27;;;7.47;;
8663;SDS011;4369;47.842;13.096;2023-04-03T00:58:28;8.80;;;7.40;;
8663;SDS011;4369;47.842;13.096;2023-04-03T01:01:00;8.07;;;7.13;;
8663;SDS011;4369;47.842;13.096;2023-04-03T01:03:33;8.17;;;7.37;;
8663;SDS011;4369;47.842;13.096;2023-04-03T01:06:01;8.40;;;7.20;;
8663;SDS011;4369;47.842;13.096;2023-04-03T01:08:28;8.97;;;7.83;;
8663;SDS011;4369;47.842;13.096;2023-04-03T01:10:55;9.13;;;7.73;;
8663;SDS011;4369;47.842;13.096;2023-04-03T01:13:23;8.10;;;7.30;;
8663;SDS011;4369;47.842;13.096;2023-04-03T01:15:52;7.93;;;7.10;;
8663;SDS011;4369;47.842;13.096;2023-04-03T01:18:19;7.47;;;6.77;;
8663;SDS011;4369;47.842;13.096;2023-04-03T01:21:01;8.63;;;6.73;;
8663;SDS011;4369;47.842;13.096;2023-04-03T01:23:57;7.67;;;6.70;;
8663;SDS011;4369;47.842;13.096;2023-04-03T01:26:31;7.37;;;6.67;;
8663;SDS011;4369;47.842;13.096;2023-04-03T01:28:59;7.93;;;7.13;;
8663;SDS011;4369;47.842;13.096;2023-04-03T01:31:27;7.63;;;6.67;;
8663;SDS011;4369;47.842;13.096;2023-04-03T01:33:59;7.43;;;6.67;;
8663;SDS011;4369;47.842;13.096;2023-04-03T01:36:26;8.40;;;6.87;;
8663;SDS011;4369;47.842;13.096;2023-04-03T01:38:55;7.90;;;7.03;;
8663;SDS011;4369;47.842;13.096;2023-04-03T01:41:24;8.83;;;7.30;;
8663;SDS011;4369;47.842;13.096;2023-04-03T01:43:51;8.43;;;7.40;;
8663;SDS011;4369;47.842;13.096;2023-04-03T01:46:18;8.33;;;7.40;;
8663;SDS011;4369;47.842;13.096;2023-04-03T01:48:46;7.70;;;6.90;;
8663;SDS011;4369;47.842;13.096;2023-04-03T01:51:14;9.90;;;7.17;;
8663;SDS011;4369;47.842;13.096;2023-04-03T01:53:41;7.53;;;6.67;;
8663;SDS011;4369;47.842;13.096;2023-04-03T01:56:08;8.17;;;6.60;;
8663;SDS011;4369;47.842;13.096;2023-04-03T01:58:35;7.03;;;6.33;;
8663;SDS011;4369;47.842;13.096;2023-04-03T02:01:02;8.45;;;7.55;;
8663;SDS011;4369;47.842;13.096;2023-04-03T02:03:29;7.60;;;6.57;;
8663;SDS011;4369;47.842;13.096;2023-04-03T02:05:57;6.90;;;6.20;;
8663;SDS011;4369;47.842;13.096;2023-04-03T02:08:25;6.90;;;6.20;;
8663;SDS011;4369;47.842;13.096;2023-04-03T02:10:52;7.60;;;6.60;;
8663;SDS011;4369;47.842;13.096;2023-04-03T02:13:19;7.23;;;6.23;;
8663;SDS011;4369;47.842;13.096;2023-04-03T02:15:46;6.70;;;5.90;;
8663;SDS011;4369;47.842;13.096;2023-04-03T02:18:13;7.17;;;6.40;;
8663;SDS011;4369;47.842;13.096;2023-04-03T02:20:41;6.77;;;6.07;;
8663;SDS011;4369;47.842;13.096;2023-04-03T02:23:08;6.90;;;6.23;;
8663;SDS011;4369;47.842;13.096;2023-04-03T02:25:36;7.30;;;6.57;;
8663;SDS011;4369;47.842;13.096;2023-04-03T02:28:03;7.47;;;5.87;;
8663;SDS011;4369;47.842;13.096;2023-04-03T02:30:30;6.60;;;5.90;;
8663;SDS011;4369;47.842;13.096;2023-04-03T02:32:57;7.30;;;6.20;;
8663;SDS011;4369;47.842;13.096;2023-04-03T02:35:24;9.70;;;6.07;;
8663;SDS011;4369;47.842;13.096;2023-04-03T02:37:51;6.60;;;6.00;;
8663;SDS011;4369;47.842;13.096;2023-04-03T02:40:18;6.43;;;5.23;;
8663;SDS011;4369;47.842;13.096;2023-04-03T02:42:46;6.33;;;5.70;;
8663;SDS011;4369;47.842;13.096;2023-04-03T02:45:13;6.37;;;5.67;;
8663;SDS011;4369;47.842;13.096;2023-04-03T02:47:40;6.73;;;6.03;;
8663;SDS011;4369;47.842;13.096;2023-04-03T02:50:07;6.20;;;5.60;;
8663;SDS011;4369;47.842;13.096;2023-04-03T02:52:34;6.90;;;6.20;;
8663;SDS011;4369;47.842;13.096;2023-04-03T02:55:01;7.00;;;6.30;;
8663;SDS011;4369;47.842;13.096;2023-04-03T02:57:28;7.13;;;5.90;;
8663;SDS011;4369;47.842;13.096;2023-04-03T02:59:56;6.17;;;5.57;;
8663;SDS011;4369;47.842;13.096;2023-04-03T03:02:23;7.90;;;6.87;;
8663;SDS011;4369;47.842;13.096;2023-04-03T03:04:50;6.80;;;5.70;;
8663;SDS011;4369;47.842;13.096;2023-04-03T03:07:17;7.00;;;5.93;;
8663;SDS011;4369;47.842;13.096;2023-04-03T03:09:44;7.60;;;5.93;;
8663;SDS011;4369;47.842;13.096;2023-04-03T03:12:11;7.63;;;6.88;;
8663;SDS011;4369;47.842;13.096;2023-04-03T03:14:37;6.00;;;5.40;;
8663;SDS011;4369;47.842;13.096;2023-04-03T03:17:07;6.23;;;5.63;;
8663;SDS011;4369;47.842;13.096;2023-04-03T03:19:33;6.80;;;5.90;;
8663;SDS011;4369;47.842;13.096;2023-04-03T03:22:00;7.80;;;6.13;;
8663;SDS011;4369;47.842;13.096;2023-04-03T03:24:27;7.07;;;5.67;;
8663;SDS011;4369;47.842;13.096;2023-04-03T03:26:54;6.57;;;5.90;;
8663;SDS011;4369;47.842;13.096;2023-04-03T03:29:21;6.30;;;5.70;;
8663;SDS011;4369;47.842;13.096;2023-04-03T03:31:48;6.97;;;5.73;;
8663;SDS011;4369;47.842;13.096;2023-04-03T03:34:16;6.97;;;6.27;;
8663;SDS011;4369;47.842;13.096;2023-04-03T03:36:43;6.60;;;5.83;;
8663;SDS011;4369;47.842;13.096;2023-04-03T03:39:10;6.93;;;6.03;;
8663;SDS011;4369;47.842;13.096;2023-04-03T03:41:37;7.87;;;5.67;;
8663;SDS011;4369;47.842;13.096;2023-04-03T03:44:04;7.00;;;5.80;;
8663;SDS011;4369;47.842;13.096;2023-04-03T03:46:31;6.33;;;5.73;;
8663;SDS011;4369;47.842;13.096;2023-04-03T03:48:58;6.07;;;5.57;;
8663;SDS011;4369;47.842;13.096;2023-04-03T03:51:26;8.27;;;5.40;;
8663;SDS011;4369;47.842;13.096;2023-04-03T03:53:53;6.23;;;5.63;;
8663;SDS011;4369;47.842;13.096;2023-04-03T03:56:20;6.60;;;5.90;;
8663;SDS011;4369;47.842;13.096;2023-04-03T03:58:47;5.93;;;5.40;;
8663;SDS011;4369;47.842;13.096;2023-04-03T04:01:14;8.37;;;5.97;;
8663;SDS011;4369;47.842;13.096;2023-04-03T04:03:41;7.77;;;5.90;;
8663;SDS011;4369;47.842;13.096;2023-04-03T04:06:08;7.80;;;6.87;;
8663;SDS011;4369;47.842;13.096;2023-04-03T04:08:36;8.90;;;6.50;;
8663;SDS011;4369;47.842;13.096;2023-04-03T04:11:03;7.60;;;6.50;;
8663;SDS011;4369;47.842;13.096;2023-04-03T04:13:30;7.23;;;6.43;;
8663;SDS011;4369;47.842;13.096;2023-04-03T04:15:57;6.83;;;6.13;;
8663;SDS011;4369;47.842;13.096;2023-04-03T04:18:24;7.30;;;5.70;;
8663;SDS011;4369;47.842;13.096;2023-04-03T04:20:51;6.77;;;5.83;;
8663;SDS011;4369;47.842;13.096;2023-04-03T04:23:18;7.43;;;5.70;;
8663;SDS011;4369;47.842;13.096;2023-04-03T04:25:46;6.50;;;5.90;;
8663;SDS011;4369;47.842;13.096;2023-04-03T04:28:14;5.57;;;5.03;;
8663;SDS011;4369;47.842;13.096;2023-04-03T04:30:41;6.63;;;5.83;;
8663;SDS011;4369;47.842;13.096;2023-04-03T04:33:08;5.73;;;5.23;;
8663;SDS011;4369;47.842;13.096;2023-04-03T04:35:34;6.27;;;5.67;;
8663;SDS011;4369;47.842;13.096;2023-04-03T04:38:01;5.93;;;5.33;;
8663;SDS011;4369;47.842;13.096;2023-04-03T04:40:28;7.60;;;5.80;;
8663;SDS011;4369;47.842;13.096;2023-04-03T04:42:57;6.57;;;5.93;;
8663;SDS011;4369;47.842;13.096;2023-04-03T04:45:23;7.70;;;5.50;;
8663;SDS011;4369;47.842;13.096;2023-04-03T04:47:50;5.93;;;5.33;;
8663;SDS011;4369;47.842;13.096;2023-04-03T04:50:18;6.57;;;5.57;;
8663;SDS011;4369;47.842;13.096;2023-04-03T04:52:44;5.70;;;5.10;;
8663;SDS011;4369;47.842;13.096;2023-04-03T04:55:11;6.80;;;5.70;;
8663;SDS011;4369;47.842;13.096;2023-04-03T04:57:38;6.10;;;5.50;;
8663;SDS011;4369;47.842;13.096;2023-04-03T05:00:07;6.57;;;5.50;;
8663;SDS011;4369;47.842;13.096;2023-04-03T05:02:35;6.57;;;5.57;;
8663;SDS011;4369;47.842;13.096;2023-04-03T05:05:01;5.70;;;5.20;;
8663;SDS011;4369;47.842;13.096;2023-04-03T05:07:29;7.33;;;5.40;;
8663;SDS011;4369;47.842;13.096;2023-04-03T05:09:55;6.23;;;5.63;;
8663;SDS011;4369;47.842;13.096;2023-04-03T05:12:23;6.37;;;5.53;;
8663;SDS011;4369;47.842;13.096;2023-04-03T05:14:50;5.90;;;5.30;;
8663;SDS011;4369;47.842;13.096;2023-04-03T05:17:18;6.20;;;5.50;;
8663;SDS011;4369;47.842;13.096;2023-04-03T05:19:45;7.33;;;6.07;;
8663;SDS011;4369;47.842;13.096;2023-04-03T05:22:12;6.73;;;5.90;;
8663;SDS011;4369;47.842;13.096;2023-04-03T05:24:39;6.73;;;6.03;;
8663;SDS011;4369;47.842;13.096;2023-04-03T05:27:05;5.60;;;5.10;;
8663;SDS011;4369;47.842;13.096;2023-04-03T05:29:32;6.50;;;5.80;;
8663;SDS011;4369;47.842;13.096;2023-04-03T05:31:59;6.43;;;5.83;;
8663;SDS011;4369;47.842;13.096;2023-04-03T05:34:27;6.13;;;5.50;;
8663;SDS011;4369;47.842;13.096;2023-04-03T05:36:54;6.33;;;5.73;;
8663;SDS011;4369;47.842;13.096;2023-04-03T05:39:21;8.93;;;5.90;;
8663;SDS011;4369;47.842;13.096;2023-04-03T05:41:49;6.43;;;5.83;;
8663;SDS011;4369;47.842;13.096;2023-04-03T05:44:16;7.57;;;6.87;;
8663;SDS011;4369;47.842;13.096;2023-04-03T05:46:42;9.03;;;6.67;;
8663;SDS011;4369;47.842;13.096;2023-04-03T05:49:09;8.93;;;6.40;;
8663;SDS011;4369;47.842;13.096;2023-04-03T05:51:38;7.43;;;6.50;;
8663;SDS011;4369;47.842;13.096;2023-04-03T05:54:06;6.60;;;6.00;;
8663;SDS011;4369;47.842;13.096;2023-04-03T05:56:38;7.00;;;6.40;;
8663;SDS011;4369;47.842;13.096;2023-04-03T05:59:05;6.53;;;5.90;;
8663;SDS011;4369;47.842;13.096;2023-04-03T06:01:32;6.40;;;5.80;;
8663;SDS011;4369;47.842;13.096;2023-04-03T06:04:00;6.27;;;5.73;;
8663;SDS011;4369;47.842;13.096;2023-04-03T06:09:12;6.83;;;5.93;;
8663;SDS011;4369;47.842;13.096;2023-04-03T06:11:40;6.73;;;6.03;;
8663;SDS011;4369;47.842;13.096;2023-04-03T06:14:08;6.77;;;6.10;;
8663;SDS011;4369;47.842;13.096;2023-04-03T06:16:35;7.30;;;5.80;;
8663;SDS011;4369;47.842;13.096;2023-04-03T06:19:03;6.47;;;5.87;;
8663;SDS011;4369;47.842;13.096;2023-04-03T06:21:30;6.53;;;5.90;;
8663;SDS011;4369;47.842;13.096;2023-04-03T06:23:59;6.27;;;5.77;;
8663;SDS011;4369;47.842;13.096;2023-04-03T06:26:27;6.00;;;5.50;;
8663;SDS011;4369;47.842;13.096;2023-04-03T06:28:54;6.87;;;6.07;;
8663;SDS011;4369;47.842;13.096;2023-04-03T06:31:21;6.27;;;5.67;;
8663;SDS011;4369;47.842;13.096;2023-04-03T06:33:48;6.93;;;5.93;;
8663;SDS011;4369;47.842;13.096;2023-04-03T06:36:15;6.37;;;5.77;;
8663;SDS011;4369;47.842;13.096;2023-04-03T06:38:44;6.73;;;5.60;;
8663;SDS011;4369;47.842;13.096;2023-04-03T06:41:14;5.53;;;5.03;;
8663;SDS011;4369;47.842;13.096;2023-04-03T06:43:42;6.20;;;5.60;;
8663;SDS011;4369;47.842;13.096;2023-04-03T06:46:12;5.97;;;5.37;;
8663;SDS011;4369;47.842;13.096;2023-04-03T06:48:41;7.33;;;5.63;;
8663;SDS011;4369;47.842;13.096;2023-04-03T06:51:11;6.07;;;5.33;;
8663;SDS011;4369;47.842;13.096;2023-04-03T06:53:43;7.20;;;5.67;;
8663;SDS011;4369;47.842;13.096;2023-04-03T06:56:10;6.37;;;5.73;;
8663;SDS011;4369;47.842;13.096;2023-04-03T06:58:39;6.53;;;5.80;;
8663;SDS011;4369;47.842;13.096;2023-04-03T07:01:07;6.40;;;5.17;;
8663;SDS011;4369;47.842;13.096;2023-04-03T07:03:34;5.60;;;5.07;;
8663;SDS011;4369;47.842;13.096;2023-04-03T07:06:02;6.27;;;5.57;;
8663;SDS011;4369;47.842;13.096;2023-04-03T07:08:29;6.10;;;5.50;;
8663;SDS011;4369;47.842;13.096;2023-04-03T07:10:55;6.13;;;5.53;;
8663;SDS011;4369;47.842;13.096;2023-04-03T07:13:22;6.87;;;5.87;;
8663;SDS011;4369;47.842;13.096;2023-04-03T07:15:51;6.20;;;5.33;;
8663;SDS011;4369;47.842;13.096;2023-04-03T07:18:18;6.17;;;5.50;;
8663;SDS011;4369;47.842;13.096;2023-04-03T07:20:45;5.80;;;5.17;;
8663;SDS011;4369;47.842;13.096;2023-04-03T07:23:11;5.97;;;5.47;;
8663;SDS011;4369;47.842;13.096;2023-04-03T07:25:41;6.03;;;5.43;;
8663;SDS011;4369;47.842;13.096;2023-04-03T07:28:08;9.73;;;5.70;;
8663;SDS011;4369;47.842;13.096;2023-04-03T07:30:41;6.10;;;5.50;;
8663;SDS011;4369;47.842;13.096;2023-04-03T07:33:10;10.10;;;5.60;;
8663;SDS011;4369;47.842;13.096;2023-04-03T07:35:38;7.13;;;5.47;;
8663;SDS011;4369;47.842;13.096;2023-04-03T07:38:05;6.10;;;5.50;;
8663;SDS011;4369;47.842;13.096;2023-04-03T07:40:32;6.70;;;5.53;;
8663;SDS011;4369;47.842;13.096;2023-04-03T07:43:02;6.30;;;5.70;;
8663;SDS011;4369;47.842;13.096;2023-04-03T07:45:28;6.23;;;5.50;;
8663;SDS011;4369;47.842;13.096;2023-04-03T07:47:56;5.70;;;5.20;;
8663;SDS011;4369;47.842;13.096;2023-04-03T07:50:24;5.73;;;5.20;;
8663;SDS011;4369;47.842;13.096;2023-04-03T07:52:52;6.17;;;5.57;;
8663;SDS011;4369;47.842;13.096;2023-04-03T07:55:19;6.13;;;5.50;;
8663;SDS011;4369;47.842;13.096;2023-04-03T07:57:46;6.63;;;6.03;;
8663;SDS011;4369;47.842;13.096;2023-04-03T08:00:13;7.33;;;5.47;;
8663;SDS011;4369;47.842;13.096;2023-04-03T08:02:42;6.90;;;5.40;;
8663;SDS011;4369;47.842;13.096;2023-04-03T08:05:09;5.60;;;5.10;;
8663;SDS011;4369;47.842;13.096;2023-04-03T08:07:39;7.17;;;5.53;;
8663;SDS011;4369;47.842;13.096;2023-04-03T08:10:06;5.70;;;5.17;;
8663;SDS011;4369;47.842;13.096;2023-04-03T08:12:33;6.40;;;4.23;;
8663;SDS011;4369;47.842;13.096;2023-04-03T08:15:02;8.37;;;3.83;;
8663;SDS011;4369;47.842;13.096;2023-04-03T08:17:29;13.53;;;4.47;;
8663;SDS011;4369;47.842;13.096;2023-04-03T08:19:56;11.80;;;4.30;;
8663;SDS011;4369;47.842;13.096;2023-04-03T08:22:23;6.03;;;3.80;;
8663;SDS011;4369;47.842;13.096;2023-04-03T08:24:51;4.03;;;3.10;;
8663;SDS011;4369;47.842;13.096;2023-04-03T08:27:21;6.00;;;3.43;;
8663;SDS011;4369;47.842;13.096;2023-04-03T08:29:48;6.07;;;3.10;;
8663;SDS011;4369;47.842;13.096;2023-04-03T08:32:14;3.77;;;3.33;;
8663;SDS011;4369;47.842;13.096;2023-04-03T08:34:41;4.13;;;2.90;;
8663;SDS011;4369;47.842;13.096;2023-04-03T08:37:08;3.43;;;2.70;;
8663;SDS011;4369;47.842;13.096;2023-04-03T08:39:36;2.97;;;2.77;;
8663;SDS011;4369;47.842;13.096;2023-04-03T08:42:05;4.57;;;3.13;;
8663;SDS011;4369;47.842;13.096;2023-04-03T08:44:44;4.50;;;3.03;;
8663;SDS011;4369;47.842;13.096;2023-04-03T08:47:18;5.27;;;3.03;;
8663;SDS011;4369;47.842;13.096;2023-04-03T08:49:51;3.03;;;2.87;;
8663;SDS011;4369;47.842;13.096;2023-04-03T08:52:22;3.87;;;3.47;;
8663;SDS011;4369;47.842;13.096;2023-04-03T08:54:58;4.60;;;4.13;;
8663;SDS011;4369;47.842;13.096;2023-04-03T08:57:29;5.07;;;4.10;;
8663;SDS011;4369;47.842;13.096;2023-04-03T09:00:00;4.23;;;3.83;;
8663;SDS011;4369;47.842;13.096;2023-04-03T09:02:31;4.20;;;3.80;;
8663;SDS011;4369;47.842;13.096;2023-04-03T09:05:01;3.60;;;3.30;;
8663;SDS011;4369;47.842;13.096;2023-04-03T09:07:33;5.63;;;3.50;;
8663;SDS011;4369;47.842;13.096;2023-04-03T09:10:05;4.47;;;3.83;;
8663;SDS011;4369;47.842;13.096;2023-04-03T09:12:38;4.93;;;3.43;;
8663;SDS011;4369;47.842;13.096;2023-04-03T09:15:10;4.13;;;3.73;;
8663;SDS011;4369;47.842;13.096;2023-04-03T09:17:46;3.73;;;3.30;;
8663;SDS011;4369;47.842;13.096;2023-04-03T09:20:24;4.17;;;3.27;;
8663;SDS011;4369;47.842;13.096;2023-04-03T09:22:55;4.10;;;3.37;;
8663;SDS011;4369;47.842;13.096;2023-04-03T09:25:23;3.63;;;3.33;;
8663;SDS011;4369;47.842;13.096;2023-04-03T09:27:54;4.90;;;4.03;;
8663;SDS011;4369;47.842;13.096;2023-04-03T09:30:23;4.47;;;4.00;;
8663;SDS011;4369;47.842;13.096;2023-04-03T09:32:53;4.03;;;3.63;;
8663;SDS011;4369;47.842;13.096;2023-04-03T09:35:23;4.93;;;4.00;;
8663;SDS011;4369;47.842;13.096;2023-04-03T09:37:51;4.33;;;3.93;;
8663;SDS011;4369;47.842;13.096;2023-04-03T09:40:35;4.20;;;3.80;;
8663;SDS011;4369;47.842;13.096;2023-04-03T09:45:48;4.67;;;4.30;;
8663;SDS011;4369;47.842;13.096;2023-04-03T09:48:17;3.67;;;3.37;;
8663;SDS011;4369;47.842;13.096;2023-04-03T09:50:58;4.40;;;4.00;;
8663;SDS011;4369;47.842;13.096;2023-04-03T09:53:31;4.13;;;3.73;;
8663;SDS011;4369;47.842;13.096;2023-04-03T09:56:00;5.03;;;4.10;;
8663;SDS011;4369;47.842;13.096;2023-04-03T09:58:31;4.47;;;4.17;;
8663;SDS011;4369;47.842;13.096;2023-04-03T10:00:59;4.67;;;3.67;;
8663;SDS011;4369;47.842;13.096;2023-04-03T10:03:29;4.33;;;3.93;;
8663;SDS011;4369;47.842;13.096;2023-04-03T10:05:57;4.43;;;3.97;;
8663;SDS011;4369;47.842;13.096;2023-04-03T10:08:25;4.27;;;3.87;;
8663;SDS011;4369;47.842;13.096;2023-04-03T10:11:10;4.30;;;3.90;;
8663;SDS011;4369;47.842;13.096;2023-04-03T10:13:54;4.60;;;4.10;;
8663;SDS011;4369;47.842;13.096;2023-04-03T10:16:25;4.90;;;4.37;;
8663;SDS011;4369;47.842;13.096;2023-04-03T10:19:02;6.80;;;4.50;;
8663;SDS011;4369;47.842;13.096;2023-04-03T10:21:40;4.57;;;3.97;;
8663;SDS011;4369;47.842;13.096;2023-04-03T10:24:15;5.87;;;4.13;;
8663;SDS011;4369;47.842;13.096;2023-04-03T10:26:49;6.30;;;4.53;;
8663;SDS011;4369;47.842;13.096;2023-04-03T10:29:30;6.07;;;4.33;;
8663;SDS011;4369;47.842;13.096;2023-04-03T10:32:19;8.37;;;6.63;;
8663;SDS011;4369;47.842;13.096;2023-04-03T10:34:59;6.47;;;5.27;;
8663;SDS011;4369;47.842;13.096;2023-04-03T10:37:34;8.67;;;6.00;;
8663;SDS011;4369;47.842;13.096;2023-04-03T10:40:15;7.20;;;6.10;;
8663;SDS011;4369;47.842;13.096;2023-04-03T10:42:50;6.63;;;5.43;;
8663;SDS011;4369;47.842;13.096;2023-04-03T10:45:26;5.73;;;5.27;;
8663;SDS011;4369;47.842;13.096;2023-04-03T10:48:00;5.93;;;5.33;;
8663;SDS011;4369;47.842;13.096;2023-04-03T10:50:33;8.27;;;5.63;;
8663;SDS011;4369;47.842;13.096;2023-04-03T10:53:08;7.00;;;5.53;;
8663;SDS011;4369;47.842;13.096;2023-04-03T10:55:46;10.23;;;7.00;;
8663;SDS011;4369;47.842;13.096;2023-04-03T10:58:20;6.43;;;5.70;;
8663;SDS011;4369;47.842;13.096;2023-04-03T11:00:56;6.67;;;5.63;;
8663;SDS011;4369;47.842;13.096;2023-04-03T11:03:29;7.50;;;6.17;;
8663;SDS011;4369;47.842;13.096;2023-04-03T11:05:59;6.50;;;5.90;;
8663;SDS011;4369;47.842;13.096;2023-04-03T11:08:33;7.67;;;5.67;;
8663;SDS011;4369;47.842;13.096;2023-04-03T11:11:05;7.33;;;5.30;;
8663;SDS011;4369;47.842;13.096;2023-04-03T11:13:35;5.83;;;5.13;;
8663;SDS011;4369;47.842;13.096;2023-04-03T11:16:09;7.13;;;5.40;;
8663;SDS011;4369;47.842;13.096;2023-04-03T11:18:44;7.77;;;5.17;;
8663;SDS011;4369;47.842;13.096;2023-04-03T11:21:16;5.50;;;5.00;;
8663;SDS011;4369;47.842;13.096;2023-04-03T11:23:47;6.40;;;5.70;;
8663;SDS011;4369;47.842;13.096;2023-04-03T11:26:15;9.60;;;6.20;;
8663;SDS011;4369;47.842;13.096;2023-04-03T11:28:44;6.97;;;5.57;;
8663;SDS011;4369;47.842;13.096;2023-04-03T11:31:15;7.50;;;5.80;;
8663;SDS011;4369;47.842;13.096;2023-04-03T11:33:55;8.90;;;5.80;;
8663;SDS011;4369;47.842;13.096;2023-04-03T11:36:32;6.33;;;5.70;;
8663;SDS011;4369;47.842;13.096;2023-04-03T11:39:07;8.13;;;5.70;;
8663;SDS011;4369;47.842;13.096;2023-04-03T11:41:43;6.40;;;5.60;;
8663;SDS011;4369;47.842;13.096;2023-04-03T11:44:25;8.83;;;6.90;;
8663;SDS011;4369;47.842;13.096;2023-04-03T11:47:00;5.80;;;4.93;;
8663;SDS011;4369;47.842;13.096;2023-04-03T11:49:50;5.13;;;4.63;;
8663;SDS011;4369;47.842;13.096;2023-04-03T11:55:43;5.10;;;4.63;;
8663;SDS011;4369;47.842;13.096;2023-04-03T11:58:18;5.10;;;4.60;;
8663;SDS011;4369;47.842;13.096;2023-04-03T12:00:50;4.70;;;4.30;;
8663;SDS011;4369;47.842;13.096;2023-04-03T12:03:55;4.77;;;4.20;;
8663;SDS011;4369;47.842;13.096;2023-04-03T12:09:33;5.27;;;4.20;;
8663;SDS011;4369;47.842;13.096;2023-04-03T12:12:30;5.50;;;4.57;;
8663;SDS011;4369;47.842;13.096;2023-04-03T12:17:51;5.13;;;4.50;;
8663;SDS011;4369;47.842;13.096;2023-04-03T12:23:29;3.63;;;3.30;;
8663;SDS011;4369;47.842;13.096;2023-04-03T12:28:47;4.67;;;3.73;;
8663;SDS011;4369;47.842;13.096;2023-04-03T12:31:15;3.80;;;3.50;;
8663;SDS011;4369;47.842;13.096;2023-04-03T12:33:59;3.60;;;3.30;;
8663;SDS011;4369;47.842;13.096;2023-04-03T12:36:41;3.83;;;3.33;;
8663;SDS011;4369;47.842;13.096;2023-04-03T12:39:17;4.40;;;3.63;;
8663;SDS011;4369;47.842;13.096;2023-04-03T12:42:01;3.83;;;3.20;;
8663;SDS011;4369;47.842;13.096;2023-04-03T12:44:43;4.03;;;3.53;;
8663;SDS011;4369;47.842;13.096;2023-04-03T12:47:26;3.30;;;3.00;;
8663;SDS011;4369;47.842;13.096;2023-04-03T12:49:58;5.53;;;3.53;;
8663;SDS011;4369;47.842;13.096;2023-04-03T12:52:35;7.33;;;6.00;;
8663;SDS011;4369;47.842;13.096;2023-04-03T12:55:07;5.03;;;4.30;;
8663;SDS011;4369;47.842;13.096;2023-04-03T12:57:40;5.23;;;3.40;;
8663;SDS011;4369;47.842;13.096;2023-04-03T13:00:20;3.73;;;3.43;;
8663;SDS011;4369;47.842;13.096;2023-04-03T13:02:53;3.90;;;3.40;;
8663;SDS011;4369;47.842;13.096;2023-04-03T13:05:21;6.33;;;3.53;;
8663;SDS011;4369;47.842;13.096;2023-04-03T13:07:50;4.07;;;3.30;;
8663;SDS011;4369;47.842;13.096;2023-04-03T13:10:22;3.63;;;2.93;;
8663;SDS011;4369;47.842;13.096;2023-04-03T13:12:50;3.33;;;3.03;;
8663;SDS011;4369;47.842;13.096;2023-04-03T13:15:20;7.10;;;3.70;;
8663;SDS011;4369;47.842;13.096;2023-04-03T13:17:50;4.13;;;3.30;;
8663;SDS011;4369;47.842;13.096;2023-04-03T13:20:19;7.20;;;4.03;;
8663;SDS011;4369;47.842;13.096;2023-04-03T13:22:51;4.03;;;3.60;;
8663;SDS011;4369;47.842;13.096;2023-04-03T13:25:25;3.60;;;3.30;;
8663;SDS011;4369;47.842;13.096;2023-04-03T13:27:55;7.20;;;5.70;;
8663;SDS011;4369;47.842;13.096;2023-04-03T13:30:28;5.13;;;4.03;;
8663;SDS011;4369;47.842;13.096;2023-04-03T13:32:58;6.73;;;4.10;;
8663;SDS011;4369;47.842;13.096;2023-04-03T13:35:31;5.43;;;3.40;;
8663;SDS011;4369;47.842;13.096;2023-04-03T13:38:04;6.40;;;5.00;;
8663;SDS011;4369;47.842;13.096;2023-04-03T13:40:33;4.40;;;4.00;;
8663;SDS011;4369;47.842;13.096;2023-04-03T13:43:01;8.00;;;4.87;;
8663;SDS011;4369;47.842;13.096;2023-04-03T13:45:31;11.20;;;7.83;;
8663;SDS011;4369;47.842;13.096;2023-04-03T13:48:09;6.03;;;5.07;;
8663;SDS011;4369;47.842;13.096;2023-04-03T13:50:57;9.83;;;6.93;;
8663;SDS011;4369;47.842;13.096;2023-04-03T13:53:27;6.77;;;3.47;;
8663;SDS011;4369;47.842;13.096;2023-04-03T13:55:58;6.47;;;4.30;;
8663;SDS011;4369;47.842;13.096;2023-04-03T13:58:32;3.83;;;2.83;;
8663;SDS011;4369;47.842;13.096;2023-04-03T14:01:01;4.87;;;3.07;;
8663;SDS011;4369;47.842;13.096;2023-04-03T14:03:42;4.03;;;3.47;;
8663;SDS011;4369;47.842;13.096;2023-04-03T14:06:12;6.10;;;4.03;;
8663;SDS011;4369;47.842;13.096;2023-04-03T14:08:42;4.83;;;3.93;;
8663;SDS011;4369;47.842;13.096;2023-04-03T14:11:11;6.00;;;3.43;;
8663;SDS011;4369;47.842;13.096;2023-04-03T14:13:41;4.00;;;3.60;;
8663;SDS011;4369;47.842;13.096;2023-04-03T14:16:11;5.10;;;3.80;;
8663;SDS011;4369;47.842;13.096;2023-04-03T14:18:39;5.57;;;3.80;;
8663;SDS011;4369;47.842;13.096;2023-04-03T14:21:09;3.80;;;3.40;;
8663;SDS011;4369;47.842;13.096;2023-04-03T14:23:37;5.60;;;3.70;;
8663;SDS011;4369;47.842;13.096;2023-04-03T14:26:08;6.20;;;3.80;;
8663;SDS011;4369;47.842;13.096;2023-04-03T14:28:37;3.83;;;3.53;;
8663;SDS011;4369;47.842;13.096;2023-04-03T14:31:07;5.20;;;3.00;;
8663;SDS011;4369;47.842;13.096;2023-04-03T14:33:36;6.17;;;2.90;;
8663;SDS011;4369;47.842;13.096;2023-04-03T14:36:05;3.53;;;3.23;;
8663;SDS011;4369;47.842;13.096;2023-04-03T14:38:39;3.37;;;3.07;;
8663;SDS011;4369;47.842;13.096;2023-04-03T14:41:09;4.40;;;3.10;;
8663;SDS011;4369;47.842;13.096;2023-04-03T14:43:38;3.90;;;2.80;;
8663;SDS011;4369;47.842;13.096;2023-04-03T14:46:08;3.40;;;3.00;;
8663;SDS011;4369;47.842;13.096;2023-04-03T14:48:38;6.57;;;3.40;;
8663;SDS011;4369;47.842;13.096;2023-04-03T14:51:05;4.53;;;3.20;;
8663;SDS011;4369;47.842;13.096;2023-04-03T14:53:32;4.30;;;3.10;;
8663;SDS011;4369;47.842;13.096;2023-04-03T14:55:59;4.67;;;3.50;;
8663;SDS011;4369;47.842;13.096;2023-04-03T14:58:28;3.47;;;3.17;;
8663;SDS011;4369;47.842;13.096;2023-04-03T15:00:55;5.57;;;3.53;;
8663;SDS011;4369;47.842;13.096;2023-04-03T15:03:21;4.17;;;3.20;;
8663;SDS011;4369;47.842;13.096;2023-04-03T15:05:49;3.80;;;3.43;;
8663;SDS011;4369;47.842;13.096;2023-04-03T15:08:20;5.07;;;3.80;;
8663;SDS011;4369;47.842;13.096;2023-04-03T15:10:48;3.43;;;3.13;;
8663;SDS011;4369;47.842;13.096;2023-04-03T15:13:18;3.73;;;3.43;;
8663;SDS011;4369;47.842;13.096;2023-04-03T15:15:47;3.93;;;3.03;;
8663;SDS011;4369;47.842;13.096;2023-04-03T15:18:15;3.70;;;3.10;;
8663;SDS011;4369;47.842;13.096;2023-04-03T15:20:44;3.90;;;3.17;;
8663;SDS011;4369;47.842;13.096;2023-04-03T15:23:13;4.07;;;3.63;;
8663;SDS011;4369;47.842;13.096;2023-04-03T15:25:41;4.33;;;3.93;;
8663;SDS011;4369;47.842;13.096;2023-04-03T15:28:09;3.97;;;3.57;;
8663;SDS011;4369;47.842;13.096;2023-04-03T15:30:43;5.47;;;3.27;;
8663;SDS011;4369;47.842;13.096;2023-04-03T15:33:11;4.17;;;3.37;;
8663;SDS011;4369;47.842;13.096;2023-04-03T15:35:38;3.40;;;3.10;;
8663;SDS011;4369;47.842;13.096;2023-04-03T15:38:05;4.50;;;3.13;;